Time;durP1;ratioP1;P1;durP2;ratioP2;P2;SDS_P1;SDS_P2;PMS_P1;PMS_P2;Temp;Humidity;BMP_temperature;BMP_pressure;BME280_temperature;BME280_humidity;BME280_pressure;Samples;Min_cycle;Max_cycle;Signal;HPM_P1;HPM_P2
2022/04/27 00:01:51;;;;;;;27.27;22.90;;;8.20;99.90;;;6.93;100.00;98195.59;5088125;28;21047;-77
2022/04/27 00:04:18;;;;;;;24.63;22.03;;;8.30;99.90;;;6.96;100.00;98202.47;5081567;28;20454;-76
2022/04/27 00:06:46;;;;;;;25.37;21.77;;;8.20;99.90;;;6.80;100.00;98196.28;5085018;28;20474;-77
2022/04/27 00:09:13;;;;;;;27.97;22.47;;;8.20;99.90;;;6.84;100.00;98212.00;5098413;28;20445;-76
2022/04/27 00:11:40;;;;;;;26.30;19.97;;;8.20;99.90;;;6.87;100.00;98215.16;5082033;28;20449;-76
2022/04/27 00:14:07;;;;;;;26.23;21.63;;;8.20;99.90;;;6.79;100.00;98213.41;5077290;28;20975;-76
2022/04/27 00:16:34;;;;;;;26.87;21.70;;;8.10;99.90;;;6.58;100.00;98181.09;5080565;28;20488;-75
2022/04/27 00:19:03;;;;;;;26.77;19.97;;;8.10;99.90;;;6.72;100.00;98214.34;5081533;28;20564;-74
2022/04/27 00:21:30;;;;;;;24.60;18.97;;;8.10;99.90;;;6.74;100.00;98205.06;5077667;28;20459;-76
2022/04/27 00:23:57;;;;;;;24.10;21.10;;;8.00;99.90;;;6.83;100.00;98208.50;5086859;28;20815;-76
2022/04/27 00:26:24;;;;;;;27.00;21.30;;;8.10;99.90;;;6.74;100.00;98204.25;5081923;28;20471;-76
2022/04/27 00:28:51;;;;;;;25.67;20.87;;;8.10;99.90;;;6.84;100.00;98203.97;5085012;28;21149;-76
2022/04/27 00:31:18;;;;;;;23.80;19.67;;;8.10;99.90;;;6.62;100.00;98201.22;5084073;28;20914;-76
2022/04/27 00:33:45;;;;;;;25.20;21.03;;;8.00;99.90;;;6.64;100.00;98207.22;5087955;28;20464;-75
2022/04/27 00:36:14;;;;;;;24.07;20.20;;;8.00;99.90;;;6.71;100.00;98207.31;5083153;28;20446;-79
2022/04/27 00:38:41;;;;;;;25.23;21.90;;;7.90;99.90;;;6.77;100.00;98202.03;5099507;28;21137;-77
2022/04/27 00:41:08;;;;;;;24.80;20.90;;;8.00;99.90;;;6.76;100.00;98205.75;5098868;28;20467;-75
2022/04/27 00:43:37;;;;;;;28.50;21.63;;;8.00;99.90;;;6.73;100.00;98198.03;5083095;28;20485;-76
2022/04/27 00:46:04;;;;;;;24.23;20.37;;;8.00;99.90;;;6.71;100.00;98202.75;5083586;28;20988;-78
2022/04/27 00:48:31;;;;;;;28.37;21.53;;;8.00;99.90;;;6.65;100.00;98208.88;5083281;28;21179;-78
2022/04/27 00:51:02;;;;;;;25.47;20.10;;;8.00;99.90;;;6.63;100.00;98195.63;5077925;28;20498;-79
2022/04/27 00:53:31;;;;;;;28.27;20.33;;;8.00;99.90;;;6.69;100.00;98207.47;5079071;28;20454;-80
2022/04/27 00:55:59;;;;;;;24.47;19.77;;;8.00;99.90;;;6.60;100.00;98216.66;5068833;28;20441;-77
2022/04/27 00:58:27;;;;;;;27.03;20.37;;;7.90;99.90;;;6.65;100.00;98219.63;5079043;28;20451;-78
2022/04/27 01:00:55;;;;;;;25.03;19.73;;;7.90;99.90;;;6.61;100.00;98213.78;5088604;28;20439;-78
2022/04/27 01:03:22;;;;;;;24.37;18.97;;;8.00;99.90;;;6.51;100.00;98222.13;5086361;28;20558;-77
2022/04/27 01:05:50;;;;;;;25.63;20.53;;;7.90;99.90;;;6.45;100.00;98217.50;5081809;28;20461;-76
2022/04/27 01:08:19;;;;;;;26.40;20.40;;;7.80;99.90;;;6.66;100.00;98226.66;5089905;28;20446;-79
2022/04/27 01:10:48;;;;;;;19.90;17.50;;;7.90;99.90;;;6.85;100.00;98232.47;5103446;28;20546;-75
2022/04/27 01:13:16;;;;;;;26.30;19.23;;;8.00;99.90;;;6.47;100.00;98218.13;5088054;28;20492;-79
2022/04/27 01:15:43;;;;;;;22.43;17.67;;;7.90;99.90;;;6.59;100.00;98231.09;5119725;27;20452;-79
2022/04/27 01:18:10;;;;;;;23.03;18.20;;;7.90;99.90;;;6.54;100.00;98231.66;5082477;28;20717;-79
2022/04/27 01:20:44;;;;;;;23.50;18.50;;;7.80;99.90;;;6.53;100.00;98227.31;5077274;28;20454;-79
2022/04/27 01:23:13;;;;;;;22.93;19.17;;;7.80;99.90;;;6.49;100.00;98226.84;5075996;28;20465;-78
2022/04/27 01:25:50;;;;;;;26.57;20.80;;;7.80;99.90;;;6.23;100.00;98185.16;5079151;28;20465;-77
2022/04/27 01:28:18;;;;;;;23.87;19.73;;;7.80;99.90;;;6.66;100.00;98232.03;5078194;28;20533;-77
2022/04/27 01:30:46;;;;;;;25.67;18.10;;;7.90;99.90;;;6.68;100.00;98235.34;5077369;28;20972;-75
2022/04/27 01:33:14;;;;;;;24.83;19.90;;;8.00;99.90;;;6.66;100.00;98232.84;5078555;28;20516;-77
2022/04/27 01:35:42;;;;;;;21.37;18.50;;;8.00;99.90;;;6.75;100.00;98230.94;5075208;28;20964;-77
2022/04/27 01:38:09;;;;;;;20.80;16.73;;;8.00;99.90;;;6.70;100.00;98236.00;5077781;28;20503;-80
2022/04/27 01:40:36;;;;;;;22.83;18.10;;;8.00;99.90;;;6.74;100.00;98239.16;5076774;28;20581;-77
2022/04/27 01:43:04;;;;;;;19.93;17.20;;;8.00;99.90;;;6.67;100.00;98244.44;5077501;28;20493;-77
2022/04/27 01:45:31;;;;;;;21.70;18.10;;;8.00;99.90;;;6.45;100.00;98240.81;5072828;28;20471;-77
2022/04/27 01:47:58;;;;;;;23.37;19.47;;;7.90;99.90;;;6.61;100.00;98245.19;5109838;28;20545;-78
2022/04/27 01:50:26;;;;;;;23.53;19.53;;;7.90;99.90;;;6.52;100.00;98237.19;5076790;28;20453;-77
2022/04/27 01:55:39;;;;;;;25.90;19.93;;;7.70;99.90;;;6.33;100.00;98256.53;5076197;28;21071;-78
2022/04/27 01:58:06;;;;;;;24.80;20.20;;;7.70;99.90;;;6.51;100.00;98250.78;5078419;28;20457;-74
2022/04/27 02:00:34;;;;;;;23.77;18.83;;;7.80;99.90;;;6.64;100.00;98250.19;5074727;28;20471;-77
2022/04/27 02:03:02;;;;;;;25.70;20.80;;;7.90;99.90;;;6.55;100.00;98251.28;5075102;28;20460;-74
2022/04/27 02:05:29;;;;;;;25.67;19.00;;;7.90;99.90;;;6.61;100.00;98243.31;5073580;28;20477;-76
2022/04/27 02:07:57;;;;;;;24.93;19.03;;;7.90;99.90;;;6.27;100.00;98238.47;5078220;28;20951;-76
2022/04/27 02:10:24;;;;;;;24.93;19.70;;;7.70;99.90;;;6.18;100.00;98240.38;5074293;28;20882;-76
2022/04/27 02:12:51;;;;;;;23.57;18.23;;;7.60;99.90;;;6.36;100.00;98258.84;5107943;28;20453;-75
2022/04/27 02:15:18;;;;;;;25.33;20.20;;;7.70;99.90;;;6.45;100.00;98257.75;5076502;28;20549;-76
2022/04/27 02:17:45;;;;;;;25.40;19.00;;;7.70;99.90;;;6.34;100.00;98255.50;5078372;28;20439;-77
2022/04/27 02:20:12;;;;;;;25.00;18.87;;;7.70;99.90;;;6.33;100.00;98259.22;5079174;28;20456;-77
2022/04/27 02:22:39;;;;;;;27.33;20.87;;;7.60;99.90;;;6.41;100.00;98256.44;5081016;28;21014;-76
2022/04/27 02:25:09;;;;;;;26.43;19.97;;;7.70;99.90;;;6.45;100.00;98257.75;5077571;28;20455;-78
2022/04/27 02:27:35;;;;;;;26.23;19.93;;;7.70;99.90;;;6.50;100.00;98260.72;5080725;28;20460;-82
2022/04/27 02:30:03;;;;;;;21.20;17.80;;;7.80;99.90;;;6.57;100.00;98254.59;5089598;28;20557;-78
2022/04/27 02:32:30;;;;;;;24.50;19.27;;;7.80;99.90;;;6.51;100.00;98257.00;5082302;28;20450;-80
2022/04/27 02:34:57;;;;;;;25.63;19.80;;;7.80;99.90;;;6.67;100.00;98265.91;5086552;28;20475;-78
2022/04/27 02:37:24;;;;;;;28.20;20.63;;;7.90;99.90;;;6.47;100.00;98271.81;5076418;28;20448;-79
2022/04/27 02:39:51;;;;;;;26.40;19.80;;;7.80;99.90;;;6.36;100.00;98269.56;5087357;28;20460;-78
2022/04/27 02:42:19;;;;;;;25.43;20.70;;;7.70;99.90;;;6.51;100.00;98257.00;5076598;28;20558;-79
2022/04/27 02:44:46;;;;;;;25.50;19.67;;;7.70;99.90;;;6.10;100.00;98198.38;5081813;28;20460;-79
2022/04/27 02:47:14;;;;;;;28.90;21.83;;;7.80;99.90;;;6.58;100.00;98267.00;5082915;28;20523;-79
2022/04/27 02:52:26;;;;;;;23.00;19.10;;;7.90;99.90;;;5.89;100.00;98146.25;5085711;28;20447;-79
2022/04/27 02:54:53;;;;;;;25.37;19.10;;;7.90;99.90;;;6.69;100.00;98274.63;5073789;28;21011;-79
2022/04/27 02:57:22;;;;;;;23.37;18.40;;;8.00;99.90;;;6.52;100.00;98272.09;5082650;28;20544;-77
2022/04/27 02:59:49;;;;;;;25.90;19.83;;;7.90;99.90;;;6.64;100.00;98282.41;5084125;28;20480;-77
2022/04/27 03:02:16;;;;;;;28.40;19.90;;;7.90;99.90;;;6.51;100.00;98272.28;5078033;28;20534;-78
2022/04/27 03:04:43;;;;;;;27.60;20.33;;;7.90;99.90;;;6.33;100.00;98269.94;5083080;28;20530;-77
2022/04/27 03:07:11;;;;;;;22.13;18.57;;;7.70;99.90;;;6.54;100.00;98279.13;5084011;28;20473;-76
2022/04/27 03:09:38;;;;;;;26.33;20.30;;;7.80;99.90;;;6.44;100.00;98285.59;5083346;28;20459;-75
2022/04/27 03:12:06;;;;;;;27.43;18.90;;;7.80;99.90;;;6.51;100.00;98283.00;5084348;28;20550;-77
2022/04/27 03:14:35;;;;;;;24.77;20.23;;;7.80;99.90;;;6.33;100.00;98288.72;5079406;28;20859;-78
2022/04/27 03:17:02;;;;;;;29.27;21.10;;;7.70;99.90;;;6.35;100.00;98292.06;5081824;28;20467;-78
2022/04/27 03:19:29;;;;;;;25.30;19.40;;;7.70;99.90;;;6.37;100.00;98281.97;5101830;27;20453;-76
2022/04/27 03:21:56;;;;;;;22.70;18.10;;;7.70;99.90;;;6.54;100.00;98292.56;5073725;28;20557;-77
2022/04/27 03:24:23;;;;;;;24.83;20.13;;;7.70;99.90;;;6.55;100.00;98304.97;5076629;28;20437;-76
2022/04/27 03:26:50;;;;;;;25.40;19.70;;;7.80;99.90;;;6.56;100.00;98307.47;5089423;28;21237;-77
2022/04/27 03:29:17;;;;;;;22.50;18.40;;;7.80;99.90;;;6.45;100.00;98305.22;5077323;28;20993;-76
2022/04/27 03:31:46;;;;;;;22.20;18.60;;;7.80;99.90;;;6.39;100.00;98298.72;5080346;28;21176;-77
2022/04/27 03:34:13;;;;;;;21.83;18.10;;;7.70;99.90;;;5.87;100.00;98226.03;5085527;28;20441;-78
2022/04/27 03:36:40;;;;;;;24.97;19.53;;;7.70;99.90;;;6.28;100.00;98300.00;5090422;28;20449;-76
2022/04/27 03:39:07;;;;;;;22.60;19.20;;;7.60;99.90;;;6.19;100.00;98295.72;5087387;28;20438;-77
2022/04/27 03:41:34;;;;;;;22.57;17.07;;;7.50;99.90;;;6.11;100.00;98299.28;5090168;28;20450;-76
2022/04/27 03:44:01;;;;;;;25.50;17.83;;;7.50;99.90;;;6.08;100.00;98300.50;5086138;28;20545;-75
2022/04/27 03:46:28;;;;;;;23.50;18.10;;;7.50;99.90;;;6.24;100.00;98304.06;5080674;28;20474;-76
2022/04/27 03:48:56;;;;;;;21.30;16.33;;;7.50;99.90;;;6.22;100.00;98306.09;5089869;28;20451;-75
2022/04/27 03:51:23;;;;;;;23.20;17.37;;;7.50;99.90;;;6.19;100.00;98295.72;5089678;28;21007;-76
2022/04/27 03:53:51;;;;;;;17.10;13.40;;;7.50;99.90;;;6.31;100.00;98309.56;5089634;28;20562;-76
2022/04/27 03:56:17;;;;;;;16.30;14.43;;;7.50;99.90;;;6.26;100.00;98312.78;5083178;28;20456;-76
2022/04/27 03:58:44;;;;;;;17.70;13.93;;;7.60;99.90;;;6.22;100.00;98311.47;5077705;28;20455;-75
2022/04/27 04:01:11;;;;;;;19.80;14.33;;;7.50;99.90;;;6.08;100.00;98311.25;5077782;28;20581;-77
2022/04/27 04:03:38;;;;;;;15.80;13.50;;;7.40;99.90;;;6.11;100.00;98323.44;5083873;28;21128;-75
2022/04/27 04:06:06;;;;;;;18.67;13.60;;;7.40;99.90;;;6.17;100.00;98328.09;5076419;28;20577;-77
2022/04/27 04:08:33;;;;;;;16.40;12.80;;;7.40;99.90;;;6.28;100.00;98320.63;5076413;28;20461;-75
2022/04/27 04:11:00;;;;;;;16.50;14.20;;;7.50;99.90;;;6.29;100.00;98319.59;5082467;28;20910;-77
2022/04/27 04:13:27;;;;;;;17.67;14.53;;;7.50;99.90;;;6.28;100.00;98317.94;5079202;28;20497;-77
2022/04/27 04:15:54;;;;;;;14.73;12.67;;;7.50;99.90;;;6.06;100.00;98325.84;5089086;28;20460;-76
2022/04/27 04:18:22;;;;;;;15.53;13.20;;;7.40;99.90;;;6.14;100.00;98330.31;5078388;28;20486;-77
2022/04/27 04:20:48;;;;;;;18.03;13.90;;;7.40;99.90;;;6.14;100.00;98324.94;5072037;28;20459;-77
2022/04/27 04:23:17;;;;;;;17.70;13.30;;;7.40;99.90;;;5.93;100.00;98334.44;5076888;28;20460;-75
2022/04/27 04:28:30;;;;;;;17.30;14.10;;;7.20;99.90;;;5.86;100.00;98342.38;5066860;28;20539;-77
2022/04/27 04:30:58;;;;;;;15.33;12.53;;;7.20;99.90;;;5.94;100.00;98346.84;5072849;28;20448;-74
2022/04/27 04:33:25;;;;;;;18.80;13.40;;;7.20;99.90;;;5.85;100.00;98346.06;5083255;28;20489;-75
2022/04/27 04:35:53;;;;;;;18.40;13.50;;;7.20;99.90;;;5.91;100.00;98357.91;5079540;28;20443;-76
2022/04/27 04:38:21;;;;;;;15.67;13.37;;;7.20;99.90;;;5.89;100.00;98360.78;5083840;28;20453;-75
2022/04/27 04:40:48;;;;;;;13.17;11.53;;;7.20;99.90;;;5.86;100.00;98358.47;5082075;28;20460;-73
2022/04/27 04:43:15;;;;;;;15.43;12.47;;;7.20;99.90;;;5.90;100.00;98367.81;5085986;28;20469;-77
2022/04/27 04:45:43;;;;;;;14.43;12.03;;;7.20;99.90;;;5.90;100.00;98367.81;5078799;28;20461;-74
2022/04/27 04:48:10;;;;;;;16.13;14.00;;;7.20;99.90;;;5.84;100.00;98373.91;5083437;28;20527;-74
2022/04/27 04:50:37;;;;;;;17.03;13.80;;;7.20;99.90;;;5.81;100.00;98371.53;5070293;28;20566;-74
2022/04/27 04:53:04;;;;;;;17.07;13.93;;;7.10;99.90;;;5.92;100.00;98378.38;5081919;28;20839;-75
2022/04/27 04:55:33;;;;;;;19.87;16.03;;;7.20;99.90;;;5.66;100.00;98323.22;5069809;28;20445;-83
2022/04/27 04:58:00;;;;;;;19.83;15.70;;;7.20;99.90;;;6.09;100.00;98371.06;5076076;28;20515;-76
2022/04/27 05:00:27;;;;;;;20.50;16.60;;;7.40;99.90;;;6.19;100.00;98387.78;5081376;28;20473;-81
2022/04/27 05:02:54;;;;;;;21.17;17.10;;;7.40;99.90;;;6.36;100.00;98388.47;5079111;28;20463;-76
2022/04/27 05:05:21;;;;;;;21.20;16.20;;;7.60;99.90;;;6.43;100.00;98388.59;5076580;28;20498;-74
2022/04/27 05:07:48;;;;;;;19.83;15.80;;;7.70;99.90;;;6.47;100.00;98399.81;5072325;28;20820;-74
2022/04/27 05:10:15;;;;;;;22.60;17.87;;;7.70;99.90;;;6.55;100.00;98406.97;5075572;28;20530;-74
2022/04/27 05:12:44;;;;;;;18.60;15.40;;;7.80;99.90;;;6.57;100.00;98411.16;5075736;28;20461;-72
2022/04/27 05:15:12;;;;;;;19.87;17.30;;;7.80;99.90;;;6.72;100.00;98416.56;5073011;28;20492;-77
2022/04/27 05:17:39;;;;;;;19.10;15.80;;;7.90;99.90;;;6.78;100.00;98418.53;5072415;28;21329;-75
2022/04/27 05:20:08;;;;;;;16.63;14.80;;;8.00;99.90;;;6.79;100.00;98417.53;5074050;28;20565;-77
2022/04/27 05:22:38;;;;;;;17.43;14.60;;;8.00;99.90;;;6.83;100.00;98423.38;5077980;28;20473;-74
2022/04/27 05:25:08;;;;;;;18.70;15.87;;;8.10;99.90;;;6.89;100.00;98425.31;5071983;28;20455;-77
2022/04/27 05:27:36;;;;;;;17.13;15.20;;;8.10;99.90;;;6.92;100.00;98421.47;5078711;28;20472;-78
2022/04/27 05:32:51;;;;;;;16.70;14.90;;;8.30;99.90;;;7.17;99.92;98424.75;5080069;28;20446;-76
2022/04/27 05:35:18;;;;;;;15.70;14.10;;;8.40;99.90;;;7.13;99.08;98427.97;5079470;28;20476;-73
2022/04/27 05:37:45;;;;;;;16.90;14.23;;;8.40;99.90;;;7.23;99.59;98441.97;5077880;28;20494;-74
2022/04/27 05:40:13;;;;;;;14.67;13.17;;;8.50;99.90;;;7.64;96.48;98438.81;5076427;28;20651;-75
2022/04/27 05:42:40;;;;;;;15.63;13.97;;;8.80;99.90;;;7.91;95.10;98439.19;5093998;28;20451;-77
2022/04/27 05:45:14;;;;;;;12.77;11.47;;;9.20;99.90;;;8.09;92.90;98440.63;5078769;28;20549;-76
2022/04/27 05:47:42;;;;;;;12.90;11.60;;;9.40;99.90;;;8.14;92.71;98442.75;5075409;28;20543;-75
2022/04/27 05:50:10;;;;;;;12.70;11.50;;;9.40;99.90;;;8.43;92.59;98441.84;5072907;28;20521;-73
2022/04/27 05:52:52;;;;;;;12.30;11.20;;;9.60;99.90;;;8.87;88.78;98439.16;5079647;28;20459;-75
2022/04/27 05:55:20;;;;;;;11.10;10.00;;;10.00;95.70;;;8.62;89.14;98442.28;5071894;28;20510;-74
2022/04/27 05:57:47;;;;;;;11.50;10.40;;;10.10;93.30;;;8.52;90.64;98452.53;5072069;28;20565;-71
2022/04/27 06:00:17;;;;;;;11.87;10.77;;;9.90;95.30;;;8.93;89.79;98457.28;5115043;27;20453;-72
2022/04/27 06:02:44;;;;;;;9.57;8.77;;;10.10;95.70;;;8.99;87.32;98444.88;5089228;28;20545;-73
2022/04/27 06:05:12;;;;;;;10.40;9.50;;;10.30;93.30;;;9.30;86.41;98452.56;5087266;28;20547;-71
2022/04/27 06:07:40;;;;;;;9.20;8.30;;;10.50;92.80;;;9.28;85.27;98456.50;5106842;28;20464;-72
2022/04/27 06:10:10;;;;;;;9.73;7.97;;;10.60;91.00;;;9.13;84.25;98460.13;5084098;28;20457;-72
2022/04/27 06:12:46;;;;;;;8.27;7.57;;;10.60;90.00;;;9.29;84.40;98464.38;5088853;28;20931;-72
2022/04/27 06:15:15;;;;;;;8.13;7.40;;;10.60;90.80;;;9.85;82.63;98461.81;5085124;28;20786;-72
2022/04/27 06:17:42;;;;;;;7.40;6.80;;;10.90;90.40;;;10.06;81.07;98460.88;5091214;28;20934;-70
2022/04/27 06:20:11;;;;;;;7.67;6.97;;;11.30;87.80;;;10.21;80.89;98458.03;5078878;28;20449;-70
2022/04/27 06:22:38;;;;;;;5.83;5.33;;;11.50;87.00;;;10.13;77.14;98464.44;5080388;28;20562;-69
2022/04/27 06:28:27;;;;;;;6.23;5.40;;;11.40;85.10;;;9.67;80.27;98470.47;5081884;28;20594;-71
2022/04/27 06:30:55;;;;;;;5.67;5.27;;;11.10;84.50;;;9.25;79.64;98435.31;5095395;28;21018;-71
2022/04/27 06:33:22;;;;;;;5.03;4.63;;;11.00;84.50;;;9.45;80.07;98475.91;5080803;28;20469;-79
2022/04/27 06:35:50;;;;;;;5.60;5.10;;;10.90;84.60;;;9.25;79.28;98473.91;5078492;28;20841;-70
2022/04/27 06:38:17;;;;;;;6.03;5.50;;;10.80;84.20;;;9.43;80.81;98478.81;5119693;27;20454;-73
2022/04/27 06:40:44;;;;;;;4.97;4.57;;;10.80;87.00;;;9.46;79.78;98475.72;5078785;28;20539;-70
2022/04/27 06:43:11;;;;;;;5.80;5.30;;;10.90;84.90;;;9.68;79.97;98491.81;5080227;28;20490;-74
2022/04/27 06:45:38;;;;;;;4.97;4.53;;;11.00;84.50;;;9.74;78.86;98492.91;5077752;28;20881;-72
2022/04/27 06:48:08;;;;;;;5.30;4.90;;;11.00;84.00;;;9.82;77.62;98487.34;5081222;28;20561;-71
2022/04/27 06:50:35;;;;;;;5.40;4.47;;;11.10;83.70;;;9.83;76.46;98485.47;5079728;28;20460;-73
2022/04/27 06:53:01;;;;;;;5.13;4.63;;;11.10;82.30;;;9.89;74.24;98488.22;5113548;27;20983;-74
2022/04/27 06:55:29;;;;;;;5.73;5.23;;;11.20;81.50;;;10.13;76.06;98485.22;5083086;28;21419;-75
2022/04/27 06:57:55;;;;;;;5.80;5.30;;;11.30;82.50;;;10.11;76.00;98496.22;5081454;28;20466;-74
2022/04/27 07:00:25;;;;;;;5.47;5.07;;;11.40;82.20;;;10.05;76.85;98486.22;5081027;28;20530;-70
2022/04/27 07:02:53;;;;;;;5.00;4.60;;;11.30;82.80;;;10.00;76.48;98483.28;5082051;28;20483;-69
2022/04/27 07:05:24;;;;;;;5.40;4.90;;;11.30;82.50;;;10.07;76.70;98494.94;5079307;28;20986;-73
2022/04/27 07:07:51;;;;;;;6.20;5.70;;;11.40;82.60;;;10.20;75.95;98500.41;5081129;28;20472;-73
2022/04/27 07:10:19;;;;;;;5.83;5.23;;;11.40;82.40;;;10.34;76.75;98486.94;5077926;28;20462;-74
2022/04/27 07:12:47;;;;;;;5.70;5.20;;;11.70;83.00;;;10.40;76.61;98504.22;5082209;28;20449;-72
2022/04/27 07:15:14;;;;;;;5.77;5.37;;;11.70;82.40;;;10.55;75.74;98506.81;5081814;28;20448;-71
2022/04/27 07:17:41;;;;;;;6.40;5.57;;;11.80;82.60;;;10.45;76.12;98508.03;5082573;28;20797;-71
2022/04/27 07:20:08;;;;;;;6.50;5.90;;;11.80;82.50;;;10.35;76.71;98510.22;5075486;28;20460;-80
2022/04/27 07:22:37;;;;;;;6.20;5.70;;;11.70;82.50;;;10.47;76.81;98510.53;5080291;28;20945;-69
2022/04/27 07:25:04;;;;;;;6.83;6.23;;;11.70;82.80;;;10.38;75.86;98514.41;5078953;28;20459;-70
2022/04/27 07:27:31;;;;;;;5.57;5.10;;;11.70;82.20;;;10.39;75.74;98511.50;5077403;28;20475;-68
2022/04/27 07:29:59;;;;;;;5.40;5.00;;;11.60;81.40;;;10.01;74.78;98506.56;5077580;28;20974;-69
2022/04/27 07:32:26;;;;;;;5.80;5.30;;;11.50;81.00;;;10.18;76.45;98507.88;5076911;28;20454;-71
2022/04/27 07:34:53;;;;;;;6.70;6.20;;;11.50;82.60;;;9.85;75.50;98449.16;5080402;28;20549;-71
2022/04/27 07:37:20;;;;;;;7.70;7.00;;;11.50;81.70;;;10.27;75.54;98519.34;5080906;28;20451;-73
2022/04/27 07:39:48;;;;;;;6.63;6.13;;;11.60;81.70;;;10.13;74.74;98521.16;5083350;28;20467;-71
2022/04/27 07:42:16;;;;;;;6.30;5.80;;;11.50;80.40;;;10.02;73.85;98529.81;5085423;28;20520;-70
2022/04/27 07:44:43;;;;;;;6.33;5.83;;;11.30;80.10;;;9.79;75.07;98525.53;5083695;28;20961;-70
2022/04/27 07:47:13;;;;;;;6.67;5.97;;;11.10;80.50;;;9.79;75.12;98528.25;5082250;28;20464;-71
2022/04/27 07:49:40;;;;;;;5.90;5.40;;;11.10;80.80;;;9.66;76.09;98503.88;5077458;28;20462;-69
2022/04/27 07:52:08;;;;;;;6.73;6.13;;;11.10;81.50;;;9.97;75.49;98524.19;5082677;28;20461;-71
2022/04/27 07:54:35;;;;;;;6.80;6.23;;;11.20;81.70;;;10.01;75.36;98517.34;5081554;28;20474;-70
2022/04/27 07:57:04;;;;;;;6.90;6.33;;;11.30;81.70;;;9.97;75.15;98529.59;5082777;28;20469;-69
2022/04/27 07:59:31;;;;;;;6.80;6.30;;;11.20;81.30;;;10.13;76.64;98537.34;5083361;28;20527;-71
2022/04/27 08:01:58;;;;;;;7.43;6.80;;;11.30;82.50;;;10.51;73.91;98536.09;5084206;28;20466;-73
2022/04/27 08:04:26;;;;;;;7.17;6.57;;;11.70;81.30;;;10.94;73.46;98542.25;5079705;28;20458;-69
2022/04/27 08:06:53;;;;;;;7.83;7.13;;;12.10;81.50;;;11.48;72.14;98548.53;5085223;28;20460;-70
2022/04/27 08:09:20;;;;;;;6.97;6.47;;;12.50;80.70;;;11.48;70.71;98549.34;5083642;28;20475;-71
2022/04/27 08:11:47;;;;;;;7.90;7.20;;;12.70;79.20;;;11.62;69.41;98543.94;5088555;28;20791;-71
2022/04/27 08:14:16;;;;;;;8.00;7.00;;;12.80;78.30;;;12.00;68.84;98556.81;5077571;28;20443;-70
2022/04/27 08:16:43;;;;;;;8.77;7.50;;;13.00;78.40;;;12.58;67.02;98554.34;5081544;28;20456;-71
2022/04/27 08:19:10;;;;;;;6.87;6.27;;;13.50;77.60;;;12.67;64.98;98554.94;5072048;28;20463;-68
2022/04/27 08:21:37;;;;;;;7.53;6.87;;;13.90;75.90;;;12.77;64.04;98559.88;5078413;28;20463;-68
2022/04/27 08:24:10;;;;;;;8.33;7.53;;;14.00;74.50;;;12.70;65.55;98560.78;5095084;28;20451;-71
2022/04/27 08:26:37;;;;;;;8.03;7.20;;;13.90;75.30;;;12.52;65.46;98552.53;5078604;28;20527;-68
2022/04/27 08:29:04;;;;;;;8.00;6.97;;;13.90;74.60;;;12.18;67.29;98564.28;5074927;28;20482;-69
2022/04/27 08:31:33;;;;;;;7.77;7.17;;;13.60;75.20;;;12.14;66.59;98560.34;5109429;27;20471;-68
2022/04/27 08:34:01;;;;;;;8.77;8.07;;;13.40;75.10;;;12.00;66.93;98567.66;5096047;28;20448;-71
2022/04/27 08:36:28;;;;;;;9.30;8.40;;;13.20;75.40;;;11.76;68.93;98571.84;5077334;28;20463;-68
2022/04/27 08:38:55;;;;;;;8.87;8.10;;;13.10;76.50;;;11.87;67.72;98568.47;5076103;28;20457;-70
2022/04/27 08:41:25;;;;;;;8.30;7.60;;;13.10;76.10;;;11.83;67.82;98583.50;5077820;28;20452;-69
2022/04/27 08:43:53;;;;;;;9.20;8.30;;;13.00;75.80;;;11.70;68.51;98578.06;5077791;28;20448;-69
2022/04/27 08:46:20;;;;;;;10.90;8.80;;;13.00;76.40;;;11.84;68.25;98589.75;5077069;28;20451;-70
2022/04/27 08:48:50;;;;;;;9.20;8.40;;;13.00;76.40;;;12.31;66.98;98585.09;5081499;28;20483;-68
2022/04/27 08:51:17;;;;;;;9.53;8.77;;;13.30;76.10;;;12.43;66.77;98587.97;5079193;28;20487;-68
2022/04/27 08:53:45;;;;;;;9.73;8.50;;;13.60;75.90;;;12.22;67.15;98585.56;5074627;28;20552;-72
2022/04/27 08:56:13;;;;;;;9.87;8.97;;;13.50;75.60;;;12.14;66.97;98600.16;5078397;28;20508;-67
2022/04/27 08:58:40;;;;;;;8.97;8.20;;;13.40;75.60;;;12.21;66.01;98587.41;5078343;28;20462;-69
2022/04/27 09:01:07;;;;;;;9.77;8.77;;;13.50;75.20;;;12.25;66.81;98596.78;5076778;28;20537;-67
2022/04/27 09:03:37;;;;;;;9.00;8.30;;;13.40;75.60;;;12.37;65.84;98594.25;5081339;28;20459;-67
2022/04/27 09:06:08;;;;;;;8.73;8.03;;;13.50;75.40;;;12.30;66.12;98598.84;5075633;28;20455;-67
2022/04/27 09:08:40;;;;;;;9.17;8.37;;;13.60;75.00;;;12.50;64.92;98590.66;5078765;28;21013;-71
2022/04/27 09:11:16;;;;;;;8.47;7.77;;;13.70;74.50;;;12.72;64.17;98604.75;5099324;28;20474;-80
2022/04/27 09:13:53;;;;;;;10.03;9.23;;;13.90;74.10;;;12.92;65.27;98605.72;5100521;28;20589;-80
2022/04/27 09:16:23;;;;;;;9.77;8.97;;;14.10;74.60;;;13.67;62.07;98601.50;5095482;28;20744;-79
2022/04/27 09:22:00;;;;;;;9.40;8.40;;;14.80;72.60;;;14.24;59.88;98606.00;5064083;28;20529;-76
2022/04/27 09:24:29;;;;;;;9.70;8.90;;;15.20;71.80;;;14.07;60.97;98609.31;5100157;28;20666;-79
2022/04/27 09:27:04;;;;;;;8.90;8.20;;;15.20;72.00;;;13.79;61.00;98609.75;5099756;28;20453;-81
2022/04/27 09:29:32;;;;;;;10.20;9.30;;;15.00;71.50;;;13.21;63.28;98608.91;5099163;28;20473;-79
2022/04/27 09:32:01;;;;;;;9.47;8.67;;;14.50;72.30;;;13.00;64.21;98609.00;5102080;28;20455;-77
2022/04/27 09:34:28;;;;;;;8.57;7.87;;;14.30;73.00;;;13.31;62.77;98609.25;5087100;28;20507;-82
2022/04/27 09:37:01;;;;;;;9.33;8.47;;;14.40;72.70;;;12.91;63.34;98610.31;5110631;28;20479;-79
2022/04/27 09:39:28;;;;;;;9.73;8.93;;;14.20;71.70;;;12.85;62.88;98611.19;5094019;28;20483;-77
2022/04/27 09:42:05;;;;;;;9.50;8.70;;;14.10;71.70;;;12.71;63.49;98611.22;5094311;28;20468;-79
2022/04/27 09:44:33;;;;;;;9.70;8.90;;;14.00;72.10;;;12.81;63.93;98615.34;5071577;28;20514;-82
2022/04/27 09:47:03;;;;;;;9.60;8.80;;;14.00;72.70;;;13.34;62.29;98606.06;5082651;28;20448;-69
2022/04/27 09:49:31;;;;;;;9.47;8.73;;;14.30;72.10;;;13.44;62.36;98605.66;5074705;28;21278;-68
2022/04/27 09:52:02;;;;;;;9.13;8.33;;;14.50;71.80;;;13.63;61.55;98611.16;5073113;28;20625;-70
2022/04/27 09:54:31;;;;;;;10.57;9.50;;;14.80;71.60;;;13.39;61.60;98609.00;5080370;28;20490;-69
2022/04/27 09:57:00;;;;;;;9.53;8.77;;;14.80;70.70;;;13.45;60.17;98612.75;5075883;28;20463;-69
2022/04/27 09:59:30;;;;;;;10.37;9.37;;;14.60;69.70;;;14.30;57.99;98605.09;5076653;28;20646;-69
2022/04/27 10:02:05;;;;;;;9.97;8.60;;;15.30;69.40;;;14.84;56.70;98605.31;5112190;28;20854;-73
2022/04/27 10:04:32;;;;;;;9.30;8.40;;;15.70;68.60;;;15.55;55.09;98604.75;5077504;28;20463;-68
2022/04/27 10:07:04;;;;;;;8.80;8.10;;;16.30;67.60;;;15.66;53.80;98605.00;5078086;28;20549;-69
2022/04/27 10:09:32;;;;;;;8.37;7.67;;;16.60;66.70;;;14.51;56.50;98590.22;5075722;28;20724;-71
2022/04/27 10:12:03;;;;;;;9.17;8.27;;;15.90;65.90;;;15.19;54.10;98595.66;5069962;28;20443;-68
2022/04/27 10:14:30;;;;;;;8.70;7.33;;;16.10;65.20;;;15.62;53.80;98598.38;5078108;28;20464;-68
2022/04/27 10:16:58;;;;;;;10.60;8.33;;;16.50;65.60;;;14.63;54.14;98598.44;5076688;28;20451;-68
2022/04/27 10:19:26;;;;;;;7.83;7.13;;;16.00;63.50;;;14.70;53.45;98591.03;5079068;28;20916;-68
2022/04/27 10:21:57;;;;;;;8.27;7.57;;;15.60;63.00;;;14.90;52.26;98578.28;5074403;28;20457;-67
2022/04/27 10:24:50;;;;;;;8.13;7.33;;;15.90;62.80;;;14.93;52.98;98585.97;5075850;28;20751;-70
2022/04/27 10:27:20;;;;;;;7.50;6.90;;;15.80;63.20;;;14.94;53.16;98593.06;5079249;28;20539;-67
2022/04/27 10:29:51;;;;;;;8.37;7.67;;;16.10;62.70;;;15.37;51.71;98583.03;5078243;28;20464;-68
2022/04/27 10:32:39;;;;;;;7.30;6.50;;;16.20;62.40;;;15.61;49.22;98596.72;5096789;28;20464;-68
2022/04/27 10:35:18;;;;;;;7.17;6.57;;;16.70;59.40;;;15.06;50.66;98596.69;5111699;28;20465;-69
2022/04/27 10:37:47;;;;;;;8.60;7.80;;;16.50;59.40;;;15.67;49.79;98591.16;5077736;28;20446;-69